sensor_id;sensor_type;location;lat;lon;timestamp;P1;durP1;ratioP1;P2;durP2;ratioP2
73670;SDS011;61968;48.178;11.566;2023-02-28T00:00:21;4.88;;;1.75;;
73670;SDS011;61968;48.178;11.566;2023-02-28T00:02:50;1.88;;;1.60;;
73670;SDS011;61968;48.178;11.566;2023-02-28T00:05:17;2.72;;;1.67;;
73670;SDS011;61968;48.178;11.566;2023-02-28T00:07:46;1.42;;;1.33;;
73670;SDS011;61968;48.178;11.566;2023-02-28T00:10:13;2.47;;;1.33;;
73670;SDS011;61968;48.178;11.566;2023-02-28T00:12:44;1.70;;;1.42;;
73670;SDS011;61968;48.178;11.566;2023-02-28T00:15:10;3.20;;;1.70;;
73670;SDS011;61968;48.178;11.566;2023-02-28T00:17:37;2.42;;;1.70;;
73670;SDS011;61968;48.178;11.566;2023-02-28T00:20:06;2.92;;;1.83;;
73670;SDS011;61968;48.178;11.566;2023-02-28T00:22:35;2.97;;;1.80;;
73670;SDS011;61968;48.178;11.566;2023-02-28T00:25:02;1.85;;;1.20;;
73670;SDS011;61968;48.178;11.566;2023-02-28T00:27:29;2.28;;;1.67;;
73670;SDS011;61968;48.178;11.566;2023-02-28T00:29:56;2.53;;;1.48;;
73670;SDS011;61968;48.178;11.566;2023-02-28T00:32:23;2.05;;;1.58;;
73670;SDS011;61968;48.178;11.566;2023-02-28T00:34:49;2.15;;;1.52;;
73670;SDS011;61968;48.178;11.566;2023-02-28T00:37:17;2.92;;;1.88;;
73670;SDS011;61968;48.178;11.566;2023-02-28T00:39:44;2.53;;;1.70;;
73670;SDS011;61968;48.178;11.566;2023-02-28T00:42:10;3.00;;;2.47;;
73670;SDS011;61968;48.178;11.566;2023-02-28T00:44:37;2.20;;;1.45;;
73670;SDS011;61968;48.178;11.566;2023-02-28T00:47:03;2.70;;;1.70;;
73670;SDS011;61968;48.178;11.566;2023-02-28T00:49:30;2.05;;;1.70;;
73670;SDS011;61968;48.178;11.566;2023-02-28T00:51:57;3.50;;;1.70;;
73670;SDS011;61968;48.178;11.566;2023-02-28T00:54:25;8.00;;;1.83;;
73670;SDS011;61968;48.178;11.566;2023-02-28T00:56:51;1.75;;;1.40;;
73670;SDS011;61968;48.178;11.566;2023-02-28T00:59:18;4.88;;;2.38;;
73670;SDS011;61968;48.178;11.566;2023-02-28T01:01:45;5.55;;;1.42;;
73670;SDS011;61968;48.178;11.566;2023-02-28T01:04:12;3.15;;;2.05;;
73670;SDS011;61968;48.178;11.566;2023-02-28T01:06:39;5.07;;;2.42;;
73670;SDS011;61968;48.178;11.566;2023-02-28T01:09:06;3.55;;;2.15;;
73670;SDS011;61968;48.178;11.566;2023-02-28T01:11:35;4.22;;;2.03;;
73670;SDS011;61968;48.178;11.566;2023-02-28T01:14:01;3.05;;;2.05;;
73670;SDS011;61968;48.178;11.566;2023-02-28T01:16:28;3.03;;;1.80;;
73670;SDS011;61968;48.178;11.566;2023-02-28T01:18:56;2.38;;;1.60;;
73670;SDS011;61968;48.178;11.566;2023-02-28T01:21:22;2.33;;;1.77;;
73670;SDS011;61968;48.178;11.566;2023-02-28T01:23:50;2.35;;;1.77;;
73670;SDS011;61968;48.178;11.566;2023-02-28T01:26:18;3.28;;;1.60;;
73670;SDS011;61968;48.178;11.566;2023-02-28T01:28:47;3.70;;;2.22;;
73670;SDS011;61968;48.178;11.566;2023-02-28T01:31:15;2.72;;;1.48;;
73670;SDS011;61968;48.178;11.566;2023-02-28T01:33:43;2.90;;;2.17;;
73670;SDS011;61968;48.178;11.566;2023-02-28T01:36:11;4.43;;;2.13;;
73670;SDS011;61968;48.178;11.566;2023-02-28T01:38:39;2.60;;;1.75;;
73670;SDS011;61968;48.178;11.566;2023-02-28T01:41:06;4.40;;;1.65;;
73670;SDS011;61968;48.178;11.566;2023-02-28T01:43:51;2.20;;;1.75;;
73670;SDS011;61968;48.178;11.566;2023-02-28T01:46:24;3.75;;;2.25;;
73670;SDS011;61968;48.178;11.566;2023-02-28T01:48:51;2.40;;;1.70;;
73670;SDS011;61968;48.178;11.566;2023-02-28T01:51:21;5.63;;;1.70;;
73670;SDS011;61968;48.178;11.566;2023-02-28T01:53:54;4.47;;;1.77;;
73670;SDS011;61968;48.178;11.566;2023-02-28T01:56:25;1.70;;;1.60;;
73670;SDS011;61968;48.178;11.566;2023-02-28T01:58:56;1.60;;;1.50;;
73670;SDS011;61968;48.178;11.566;2023-02-28T02:01:23;1.90;;;1.40;;
73670;SDS011;61968;48.178;11.566;2023-02-28T02:03:52;3.17;;;1.95;;
73670;SDS011;61968;48.178;11.566;2023-02-28T02:06:21;3.60;;;2.22;;
73670;SDS011;61968;48.178;11.566;2023-02-28T02:08:48;3.35;;;2.08;;
73670;SDS011;61968;48.178;11.566;2023-02-28T02:11:15;3.97;;;2.20;;
73670;SDS011;61968;48.178;11.566;2023-02-28T02:13:49;5.05;;;1.95;;
73670;SDS011;61968;48.178;11.566;2023-02-28T02:16:37;2.50;;;1.58;;
73670;SDS011;61968;48.178;11.566;2023-02-28T02:19:22;1.73;;;1.23;;
73670;SDS011;61968;48.178;11.566;2023-02-28T02:22:12;3.65;;;1.80;;
73670;SDS011;61968;48.178;11.566;2023-02-28T02:27:55;1.48;;;1.38;;
73670;SDS011;61968;48.178;11.566;2023-02-28T02:30:35;2.30;;;1.70;;
73670;SDS011;61968;48.178;11.566;2023-02-28T02:35:59;4.55;;;1.45;;
73670;SDS011;61968;48.178;11.566;2023-02-28T02:38:31;4.57;;;2.20;;
73670;SDS011;61968;48.178;11.566;2023-02-28T02:41:04;3.03;;;2.10;;
73670;SDS011;61968;48.178;11.566;2023-02-28T02:43:38;1.85;;;1.48;;
73670;SDS011;61968;48.178;11.566;2023-02-28T02:46:12;2.53;;;2.00;;
73670;SDS011;61968;48.178;11.566;2023-02-28T02:48:42;3.40;;;1.98;;
73670;SDS011;61968;48.178;11.566;2023-02-28T02:51:13;4.28;;;2.03;;
73670;SDS011;61968;48.178;11.566;2023-02-28T02:53:44;2.35;;;1.75;;
73670;SDS011;61968;48.178;11.566;2023-02-28T02:58:44;2.60;;;1.80;;
73670;SDS011;61968;48.178;11.566;2023-02-28T03:01:14;4.03;;;1.92;;
73670;SDS011;61968;48.178;11.566;2023-02-28T03:03:52;2.15;;;1.48;;
73670;SDS011;61968;48.178;11.566;2023-02-28T03:06:22;3.08;;;2.00;;
73670;SDS011;61968;48.178;11.566;2023-02-28T03:08:48;5.85;;;2.45;;
73670;SDS011;61968;48.178;11.566;2023-02-28T03:11:14;2.08;;;1.63;;
73670;SDS011;61968;48.178;11.566;2023-02-28T03:13:44;2.80;;;2.50;;
73670;SDS011;61968;48.178;11.566;2023-02-28T03:16:34;3.03;;;2.03;;
73670;SDS011;61968;48.178;11.566;2023-02-28T03:19:13;2.22;;;1.88;;
73670;SDS011;61968;48.178;11.566;2023-02-28T03:22:01;5.85;;;2.92;;
73670;SDS011;61968;48.178;11.566;2023-02-28T03:24:40;3.30;;;2.00;;
73670;SDS011;61968;48.178;11.566;2023-02-28T03:27:14;4.22;;;2.63;;
73670;SDS011;61968;48.178;11.566;2023-02-28T03:29:46;2.45;;;1.83;;
73670;SDS011;61968;48.178;11.566;2023-02-28T03:32:18;5.30;;;2.78;;
73670;SDS011;61968;48.178;11.566;2023-02-28T03:34:51;2.75;;;2.13;;
73670;SDS011;61968;48.178;11.566;2023-02-28T03:37:24;3.45;;;2.40;;
73670;SDS011;61968;48.178;11.566;2023-02-28T03:39:53;2.40;;;2.20;;
73670;SDS011;61968;48.178;11.566;2023-02-28T03:42:25;4.05;;;2.67;;
73670;SDS011;61968;48.178;11.566;2023-02-28T03:44:56;4.00;;;2.50;;
73670;SDS011;61968;48.178;11.566;2023-02-28T03:47:26;4.03;;;2.45;;
73670;SDS011;61968;48.178;11.566;2023-02-28T03:49:59;4.63;;;2.53;;
73670;SDS011;61968;48.178;11.566;2023-02-28T03:52:34;4.25;;;3.15;;
73670;SDS011;61968;48.178;11.566;2023-02-28T03:55:10;4.38;;;2.17;;
73670;SDS011;61968;48.178;11.566;2023-02-28T03:57:39;6.13;;;3.03;;
73670;SDS011;61968;48.178;11.566;2023-02-28T04:00:11;5.35;;;2.63;;
73670;SDS011;61968;48.178;11.566;2023-02-28T04:02:41;6.40;;;2.15;;
73670;SDS011;61968;48.178;11.566;2023-02-28T04:05:08;7.13;;;2.28;;
73670;SDS011;61968;48.178;11.566;2023-02-28T04:07:37;5.82;;;3.10;;
73670;SDS011;61968;48.178;11.566;2023-02-28T04:10:04;6.55;;;2.28;;
73670;SDS011;61968;48.178;11.566;2023-02-28T04:12:31;4.57;;;3.05;;
73670;SDS011;61968;48.178;11.566;2023-02-28T04:14:57;5.70;;;2.47;;
73670;SDS011;61968;48.178;11.566;2023-02-28T04:17:24;9.55;;;3.28;;
73670;SDS011;61968;48.178;11.566;2023-02-28T04:19:50;7.43;;;3.10;;
73670;SDS011;61968;48.178;11.566;2023-02-28T04:22:17;5.50;;;2.65;;
73670;SDS011;61968;48.178;11.566;2023-02-28T04:24:45;3.80;;;2.75;;
73670;SDS011;61968;48.178;11.566;2023-02-28T04:27:11;5.50;;;3.20;;
73670;SDS011;61968;48.178;11.566;2023-02-28T04:29:40;4.72;;;2.67;;
73670;SDS011;61968;48.178;11.566;2023-02-28T04:32:09;3.70;;;2.67;;
73670;SDS011;61968;48.178;11.566;2023-02-28T04:37:02;5.03;;;2.50;;
73670;SDS011;61968;48.178;11.566;2023-02-28T04:39:34;3.80;;;2.53;;
73670;SDS011;61968;48.178;11.566;2023-02-28T04:42:02;6.18;;;2.80;;
73670;SDS011;61968;48.178;11.566;2023-02-28T04:44:29;5.72;;;2.90;;
73670;SDS011;61968;48.178;11.566;2023-02-28T04:46:55;3.97;;;2.55;;
73670;SDS011;61968;48.178;11.566;2023-02-28T04:49:22;6.95;;;2.25;;
73670;SDS011;61968;48.178;11.566;2023-02-28T04:51:48;7.75;;;3.53;;
73670;SDS011;61968;48.178;11.566;2023-02-28T04:54:15;8.25;;;4.40;;
73670;SDS011;61968;48.178;11.566;2023-02-28T04:56:43;38.25;;;20.45;;
73670;SDS011;61968;48.178;11.566;2023-02-28T04:59:10;21.35;;;11.20;;
73670;SDS011;61968;48.178;11.566;2023-02-28T05:01:37;48.83;;;22.92;;
73670;SDS011;61968;48.178;11.566;2023-02-28T05:04:04;31.88;;;15.30;;
73670;SDS011;61968;48.178;11.566;2023-02-28T05:06:31;11.27;;;6.25;;
73670;SDS011;61968;48.178;11.566;2023-02-28T05:08:58;4.72;;;3.40;;
73670;SDS011;61968;48.178;11.566;2023-02-28T05:11:26;5.20;;;3.00;;
73670;SDS011;61968;48.178;11.566;2023-02-28T05:13:58;4.15;;;2.97;;
73670;SDS011;61968;48.178;11.566;2023-02-28T05:16:26;4.32;;;3.80;;
73670;SDS011;61968;48.178;11.566;2023-02-28T05:18:53;7.47;;;3.38;;
73670;SDS011;61968;48.178;11.566;2023-02-28T05:21:23;4.15;;;3.42;;
73670;SDS011;61968;48.178;11.566;2023-02-28T05:23:53;5.25;;;3.28;;
73670;SDS011;61968;48.178;11.566;2023-02-28T05:26:21;6.88;;;3.97;;
73670;SDS011;61968;48.178;11.566;2023-02-28T05:28:48;5.43;;;3.35;;
73670;SDS011;61968;48.178;11.566;2023-02-28T05:31:14;4.35;;;3.33;;
73670;SDS011;61968;48.178;11.566;2023-02-28T05:33:42;5.93;;;3.67;;
73670;SDS011;61968;48.178;11.566;2023-02-28T05:36:09;5.32;;;3.28;;
73670;SDS011;61968;48.178;11.566;2023-02-28T05:38:35;5.95;;;3.28;;
73670;SDS011;61968;48.178;11.566;2023-02-28T05:41:04;6.82;;;4.18;;
73670;SDS011;61968;48.178;11.566;2023-02-28T05:43:32;6.25;;;3.10;;
73670;SDS011;61968;48.178;11.566;2023-02-28T05:48:25;5.03;;;3.35;;
73670;SDS011;61968;48.178;11.566;2023-02-28T05:50:53;8.88;;;3.97;;
73670;SDS011;61968;48.178;11.566;2023-02-28T05:53:19;5.07;;;3.95;;
73670;SDS011;61968;48.178;11.566;2023-02-28T05:55:46;9.50;;;4.25;;
73670;SDS011;61968;48.178;11.566;2023-02-28T05:58:13;5.00;;;3.65;;
73670;SDS011;61968;48.178;11.566;2023-02-28T06:00:39;6.13;;;3.30;;
73670;SDS011;61968;48.178;11.566;2023-02-28T06:03:05;8.25;;;3.92;;
73670;SDS011;61968;48.178;11.566;2023-02-28T06:05:32;9.38;;;3.80;;
73670;SDS011;61968;48.178;11.566;2023-02-28T06:08:00;9.65;;;4.07;;
73670;SDS011;61968;48.178;11.566;2023-02-28T06:10:26;8.10;;;4.18;;
73670;SDS011;61968;48.178;11.566;2023-02-28T06:12:53;8.88;;;4.03;;
73670;SDS011;61968;48.178;11.566;2023-02-28T06:15:19;8.38;;;3.97;;
73670;SDS011;61968;48.178;11.566;2023-02-28T06:17:46;7.40;;;4.20;;
73670;SDS011;61968;48.178;11.566;2023-02-28T06:20:13;9.40;;;4.63;;
73670;SDS011;61968;48.178;11.566;2023-02-28T06:22:39;9.35;;;4.20;;
73670;SDS011;61968;48.178;11.566;2023-02-28T06:25:08;10.23;;;4.30;;
73670;SDS011;61968;48.178;11.566;2023-02-28T06:27:36;8.85;;;4.72;;
73670;SDS011;61968;48.178;11.566;2023-02-28T06:30:02;21.15;;;5.35;;
73670;SDS011;61968;48.178;11.566;2023-02-28T06:32:29;7.78;;;4.97;;
73670;SDS011;61968;48.178;11.566;2023-02-28T06:34:56;7.20;;;4.75;;
73670;SDS011;61968;48.178;11.566;2023-02-28T06:37:23;11.90;;;4.90;;
73670;SDS011;61968;48.178;11.566;2023-02-28T06:39:51;8.10;;;4.03;;
73670;SDS011;61968;48.178;11.566;2023-02-28T06:42:18;7.22;;;4.70;;
73670;SDS011;61968;48.178;11.566;2023-02-28T06:44:47;8.30;;;4.72;;
73670;SDS011;61968;48.178;11.566;2023-02-28T06:47:13;7.47;;;5.00;;
73670;SDS011;61968;48.178;11.566;2023-02-28T06:49:39;10.10;;;5.18;;
73670;SDS011;61968;48.178;11.566;2023-02-28T06:52:06;12.23;;;5.00;;
73670;SDS011;61968;48.178;11.566;2023-02-28T06:54:33;10.30;;;4.78;;
73670;SDS011;61968;48.178;11.566;2023-02-28T06:57:00;11.65;;;4.50;;
73670;SDS011;61968;48.178;11.566;2023-02-28T06:59:28;10.20;;;4.70;;
73670;SDS011;61968;48.178;11.566;2023-02-28T07:01:54;9.50;;;5.18;;
73670;SDS011;61968;48.178;11.566;2023-02-28T07:04:21;6.95;;;4.30;;
73670;SDS011;61968;48.178;11.566;2023-02-28T07:06:48;9.52;;;5.65;;
73670;SDS011;61968;48.178;11.566;2023-02-28T07:09:14;11.13;;;5.60;;
73670;SDS011;61968;48.178;11.566;2023-02-28T07:14:07;10.70;;;4.88;;
73670;SDS011;61968;48.178;11.566;2023-02-28T07:19:02;12.00;;;4.35;;
73670;SDS011;61968;48.178;11.566;2023-02-28T07:21:28;7.95;;;4.45;;
73670;SDS011;61968;48.178;11.566;2023-02-28T07:23:55;10.25;;;5.00;;
73670;SDS011;61968;48.178;11.566;2023-02-28T07:26:22;9.65;;;5.68;;
73670;SDS011;61968;48.178;11.566;2023-02-28T07:28:49;11.02;;;4.85;;
73670;SDS011;61968;48.178;11.566;2023-02-28T07:33:44;7.88;;;5.05;;
73670;SDS011;61968;48.178;11.566;2023-02-28T07:36:12;9.40;;;5.25;;
73670;SDS011;61968;48.178;11.566;2023-02-28T07:38:40;14.23;;;6.32;;
73670;SDS011;61968;48.178;11.566;2023-02-28T07:41:08;9.50;;;5.68;;
73670;SDS011;61968;48.178;11.566;2023-02-28T07:43:35;7.32;;;4.78;;
73670;SDS011;61968;48.178;11.566;2023-02-28T07:48:29;10.02;;;4.80;;
73670;SDS011;61968;48.178;11.566;2023-02-28T07:50:57;11.95;;;5.25;;
73670;SDS011;61968;48.178;11.566;2023-02-28T07:53:25;9.13;;;5.05;;
73670;SDS011;61968;48.178;11.566;2023-02-28T07:55:54;9.77;;;4.78;;
73670;SDS011;61968;48.178;11.566;2023-02-28T07:58:21;9.80;;;5.53;;
73670;SDS011;61968;48.178;11.566;2023-02-28T08:00:47;10.15;;;5.40;;
73670;SDS011;61968;48.178;11.566;2023-02-28T08:03:14;9.90;;;5.93;;
73670;SDS011;61968;48.178;11.566;2023-02-28T08:05:44;11.15;;;6.10;;
73670;SDS011;61968;48.178;11.566;2023-02-28T08:08:12;14.20;;;5.85;;
73670;SDS011;61968;48.178;11.566;2023-02-28T08:10:39;9.32;;;4.97;;
73670;SDS011;61968;48.178;11.566;2023-02-28T08:13:06;8.07;;;5.28;;
73670;SDS011;61968;48.178;11.566;2023-02-28T08:17:59;9.05;;;5.32;;
73670;SDS011;61968;48.178;11.566;2023-02-28T08:20:26;13.02;;;6.22;;
73670;SDS011;61968;48.178;11.566;2023-02-28T08:22:53;9.43;;;5.35;;
73670;SDS011;61968;48.178;11.566;2023-02-28T08:25:21;17.02;;;7.07;;
73670;SDS011;61968;48.178;11.566;2023-02-28T08:27:47;11.95;;;6.22;;
73670;SDS011;61968;48.178;11.566;2023-02-28T08:30:16;11.27;;;5.70;;
73670;SDS011;61968;48.178;11.566;2023-02-28T08:32:43;13.27;;;5.75;;
73670;SDS011;61968;48.178;11.566;2023-02-28T08:35:09;10.93;;;5.80;;
73670;SDS011;61968;48.178;11.566;2023-02-28T08:37:36;11.75;;;5.10;;
73670;SDS011;61968;48.178;11.566;2023-02-28T08:40:03;14.70;;;5.82;;
73670;SDS011;61968;48.178;11.566;2023-02-28T08:42:31;9.45;;;5.07;;
73670;SDS011;61968;48.178;11.566;2023-02-28T08:44:58;13.40;;;6.32;;
73670;SDS011;61968;48.178;11.566;2023-02-28T08:47:24;10.13;;;6.38;;
73670;SDS011;61968;48.178;11.566;2023-02-28T08:52:17;12.52;;;5.50;;
73670;SDS011;61968;48.178;11.566;2023-02-28T08:54:44;12.98;;;5.20;;
73670;SDS011;61968;48.178;11.566;2023-02-28T08:57:10;11.75;;;4.90;;
73670;SDS011;61968;48.178;11.566;2023-02-28T08:59:38;9.02;;;5.93;;
73670;SDS011;61968;48.178;11.566;2023-02-28T09:02:05;15.60;;;6.20;;
73670;SDS011;61968;48.178;11.566;2023-02-28T09:04:33;12.68;;;6.57;;
73670;SDS011;61968;48.178;11.566;2023-02-28T09:06:59;10.65;;;4.90;;
73670;SDS011;61968;48.178;11.566;2023-02-28T09:09:25;13.65;;;6.70;;
73670;SDS011;61968;48.178;11.566;2023-02-28T09:11:52;10.73;;;5.70;;
73670;SDS011;61968;48.178;11.566;2023-02-28T09:14:21;12.57;;;6.07;;
73670;SDS011;61968;48.178;11.566;2023-02-28T09:16:49;10.90;;;5.78;;
73670;SDS011;61968;48.178;11.566;2023-02-28T09:19:15;13.43;;;6.40;;
73670;SDS011;61968;48.178;11.566;2023-02-28T09:21:42;11.82;;;6.45;;
73670;SDS011;61968;48.178;11.566;2023-02-28T09:24:08;12.10;;;6.18;;
73670;SDS011;61968;48.178;11.566;2023-02-28T09:26:36;11.30;;;5.20;;
73670;SDS011;61968;48.178;11.566;2023-02-28T09:31:29;13.13;;;5.20;;
73670;SDS011;61968;48.178;11.566;2023-02-28T09:33:57;12.25;;;5.90;;
73670;SDS011;61968;48.178;11.566;2023-02-28T09:36:25;11.25;;;5.35;;
73670;SDS011;61968;48.178;11.566;2023-02-28T09:38:53;10.27;;;5.22;;
73670;SDS011;61968;48.178;11.566;2023-02-28T09:41:20;9.98;;;6.22;;
73670;SDS011;61968;48.178;11.566;2023-02-28T09:43:49;12.35;;;6.57;;
73670;SDS011;61968;48.178;11.566;2023-02-28T09:46:25;16.73;;;7.43;;
73670;SDS011;61968;48.178;11.566;2023-02-28T09:49:00;14.32;;;6.85;;
73670;SDS011;61968;48.178;11.566;2023-02-28T09:51:33;14.27;;;6.75;;
73670;SDS011;61968;48.178;11.566;2023-02-28T09:54:06;13.68;;;6.57;;
73670;SDS011;61968;48.178;11.566;2023-02-28T09:56:36;12.20;;;6.63;;
73670;SDS011;61968;48.178;11.566;2023-02-28T09:59:09;15.20;;;7.18;;
73670;SDS011;61968;48.178;11.566;2023-02-28T10:01:43;13.77;;;6.55;;
73670;SDS011;61968;48.178;11.566;2023-02-28T10:04:33;11.13;;;5.60;;
73670;SDS011;61968;48.178;11.566;2023-02-28T10:07:11;16.52;;;7.10;;
73670;SDS011;61968;48.178;11.566;2023-02-28T10:09:47;12.77;;;6.05;;
73670;SDS011;61968;48.178;11.566;2023-02-28T10:12:18;10.85;;;6.05;;
73670;SDS011;61968;48.178;11.566;2023-02-28T10:14:47;13.27;;;7.05;;
73670;SDS011;61968;48.178;11.566;2023-02-28T10:17:16;14.90;;;7.20;;
73670;SDS011;61968;48.178;11.566;2023-02-28T10:19:49;12.10;;;6.78;;
73670;SDS011;61968;48.178;11.566;2023-02-28T10:22:24;12.98;;;6.97;;
73670;SDS011;61968;48.178;11.566;2023-02-28T10:24:55;12.52;;;7.30;;
73670;SDS011;61968;48.178;11.566;2023-02-28T10:27:25;11.18;;;5.43;;
73670;SDS011;61968;48.178;11.566;2023-02-28T10:29:56;9.93;;;5.68;;
73670;SDS011;61968;48.178;11.566;2023-02-28T10:32:25;12.80;;;6.90;;
73670;SDS011;61968;48.178;11.566;2023-02-28T10:34:55;11.00;;;6.28;;
73670;SDS011;61968;48.178;11.566;2023-02-28T10:37:25;12.00;;;7.15;;
73670;SDS011;61968;48.178;11.566;2023-02-28T10:39:52;13.32;;;6.35;;
73670;SDS011;61968;48.178;11.566;2023-02-28T10:42:19;11.25;;;6.03;;
73670;SDS011;61968;48.178;11.566;2023-02-28T10:44:55;14.02;;;5.57;;
73670;SDS011;61968;48.178;11.566;2023-02-28T10:47:31;9.70;;;5.18;;
73670;SDS011;61968;48.178;11.566;2023-02-28T10:50:03;14.85;;;6.88;;
73670;SDS011;61968;48.178;11.566;2023-02-28T10:52:33;13.38;;;7.13;;
73670;SDS011;61968;48.178;11.566;2023-02-28T10:55:14;12.95;;;6.15;;
73670;SDS011;61968;48.178;11.566;2023-02-28T10:57:45;11.93;;;5.53;;
73670;SDS011;61968;48.178;11.566;2023-02-28T11:02:41;14.60;;;5.80;;
73670;SDS011;61968;48.178;11.566;2023-02-28T11:05:26;10.18;;;5.82;;
73670;SDS011;61968;48.178;11.566;2023-02-28T11:07:55;16.10;;;6.07;;
73670;SDS011;61968;48.178;11.566;2023-02-28T11:10:24;12.18;;;6.05;;
73670;SDS011;61968;48.178;11.566;2023-02-28T11:12:54;10.88;;;5.53;;
73670;SDS011;61968;48.178;11.566;2023-02-28T11:15:23;13.50;;;6.90;;
73670;SDS011;61968;48.178;11.566;2023-02-28T11:17:54;12.75;;;6.18;;
73670;SDS011;61968;48.178;11.566;2023-02-28T11:20:24;12.27;;;6.15;;
73670;SDS011;61968;48.178;11.566;2023-02-28T11:22:54;11.32;;;6.95;;
73670;SDS011;61968;48.178;11.566;2023-02-28T11:25:23;15.40;;;6.60;;
73670;SDS011;61968;48.178;11.566;2023-02-28T11:27:52;18.13;;;8.23;;
73670;SDS011;61968;48.178;11.566;2023-02-28T11:30:27;13.32;;;6.95;;
73670;SDS011;61968;48.178;11.566;2023-02-28T11:35:51;12.30;;;7.28;;
73670;SDS011;61968;48.178;11.566;2023-02-28T11:38:21;12.20;;;6.10;;
73670;SDS011;61968;48.178;11.566;2023-02-28T11:43:23;9.40;;;5.38;;
73670;SDS011;61968;48.178;11.566;2023-02-28T11:46:03;11.77;;;6.93;;
73670;SDS011;61968;48.178;11.566;2023-02-28T11:48:42;9.75;;;5.38;;
73670;SDS011;61968;48.178;11.566;2023-02-28T11:51:20;10.82;;;5.75;;
73670;SDS011;61968;48.178;11.566;2023-02-28T11:53:51;11.02;;;6.63;;
73670;SDS011;61968;48.178;11.566;2023-02-28T11:56:36;11.25;;;6.35;;
73670;SDS011;61968;48.178;11.566;2023-02-28T11:59:12;9.15;;;5.75;;
73670;SDS011;61968;48.178;11.566;2023-02-28T12:01:59;11.20;;;7.03;;
73670;SDS011;61968;48.178;11.566;2023-02-28T12:04:48;9.63;;;6.07;;
73670;SDS011;61968;48.178;11.566;2023-02-28T12:07:28;12.77;;;6.40;;
73670;SDS011;61968;48.178;11.566;2023-02-28T12:10:05;11.02;;;5.53;;
73670;SDS011;61968;48.178;11.566;2023-02-28T12:12:47;9.57;;;6.40;;
73670;SDS011;61968;48.178;11.566;2023-02-28T12:18:36;10.88;;;5.90;;
73670;SDS011;61968;48.178;11.566;2023-02-28T12:21:18;9.13;;;5.22;;
73670;SDS011;61968;48.178;11.566;2023-02-28T12:24:08;10.00;;;6.45;;
73670;SDS011;61968;48.178;11.566;2023-02-28T12:26:47;10.18;;;5.93;;
73670;SDS011;61968;48.178;11.566;2023-02-28T12:29:17;10.98;;;6.22;;
73670;SDS011;61968;48.178;11.566;2023-02-28T12:31:49;11.63;;;6.65;;
73670;SDS011;61968;48.178;11.566;2023-02-28T12:34:21;11.82;;;5.63;;
73670;SDS011;61968;48.178;11.566;2023-02-28T12:36:52;11.32;;;6.38;;
73670;SDS011;61968;48.178;11.566;2023-02-28T12:39:25;9.40;;;4.85;;
73670;SDS011;61968;48.178;11.566;2023-02-28T12:41:56;12.60;;;6.03;;
73670;SDS011;61968;48.178;11.566;2023-02-28T12:44:30;9.27;;;5.25;;
73670;SDS011;61968;48.178;11.566;2023-02-28T12:49:30;12.48;;;6.18;;
73670;SDS011;61968;48.178;11.566;2023-02-28T12:51:59;16.23;;;6.07;;
73670;SDS011;61968;48.178;11.566;2023-02-28T12:54:29;12.05;;;6.10;;
73670;SDS011;61968;48.178;11.566;2023-02-28T12:57:02;14.88;;;6.03;;
73670;SDS011;61968;48.178;11.566;2023-02-28T12:59:36;12.00;;;5.78;;
73670;SDS011;61968;48.178;11.566;2023-02-28T13:05:26;13.75;;;5.75;;
73670;SDS011;61968;48.178;11.566;2023-02-28T13:08:08;9.82;;;5.53;;
73670;SDS011;61968;48.178;11.566;2023-02-28T13:10:57;11.20;;;6.35;;
73670;SDS011;61968;48.178;11.566;2023-02-28T13:13:24;11.15;;;6.28;;
73670;SDS011;61968;48.178;11.566;2023-02-28T13:15:58;15.82;;;6.55;;
73670;SDS011;61968;48.178;11.566;2023-02-28T13:18:31;10.95;;;5.82;;
73670;SDS011;61968;48.178;11.566;2023-02-28T13:21:01;8.82;;;5.50;;
73670;SDS011;61968;48.178;11.566;2023-02-28T13:23:38;7.15;;;4.70;;
73670;SDS011;61968;48.178;11.566;2023-02-28T13:26:22;8.80;;;5.57;;
73670;SDS011;61968;48.178;11.566;2023-02-28T13:37:42;8.73;;;5.40;;
73670;SDS011;61968;48.178;11.566;2023-02-28T13:43:06;9.27;;;5.13;;
73670;SDS011;61968;48.178;11.566;2023-02-28T13:45:34;10.20;;;5.95;;
73670;SDS011;61968;48.178;11.566;2023-02-28T13:48:03;9.18;;;5.65;;
73670;SDS011;61968;48.178;11.566;2023-02-28T13:50:32;13.30;;;5.53;;
73670;SDS011;61968;48.178;11.566;2023-02-28T13:53:24;13.98;;;6.28;;
73670;SDS011;61968;48.178;11.566;2023-02-28T13:56:01;14.25;;;6.70;;
73670;SDS011;61968;48.178;11.566;2023-02-28T13:58:41;13.52;;;5.68;;
73670;SDS011;61968;48.178;11.566;2023-02-28T14:01:16;9.43;;;5.72;;
73670;SDS011;61968;48.178;11.566;2023-02-28T14:06:56;12.40;;;6.50;;
73670;SDS011;61968;48.178;11.566;2023-02-28T14:09:24;10.18;;;5.78;;
73670;SDS011;61968;48.178;11.566;2023-02-28T14:11:53;9.32;;;5.43;;
73670;SDS011;61968;48.178;11.566;2023-02-28T14:19:35;7.03;;;4.85;;
73670;SDS011;61968;48.178;11.566;2023-02-28T14:22:04;8.90;;;4.60;;
73670;SDS011;61968;48.178;11.566;2023-02-28T14:25:08;11.52;;;5.32;;
73670;SDS011;61968;48.178;11.566;2023-02-28T14:27:43;9.75;;;5.60;;
73670;SDS011;61968;48.178;11.566;2023-02-28T14:30:15;14.15;;;6.30;;
73670;SDS011;61968;48.178;11.566;2023-02-28T14:33:04;11.43;;;6.20;;
73670;SDS011;61968;48.178;11.566;2023-02-28T14:35:45;11.35;;;5.75;;
73670;SDS011;61968;48.178;11.566;2023-02-28T14:38:26;11.15;;;5.50;;
73670;SDS011;61968;48.178;11.566;2023-02-28T14:40:56;9.05;;;5.70;;
73670;SDS011;61968;48.178;11.566;2023-02-28T14:43:25;8.18;;;4.95;;
73670;SDS011;61968;48.178;11.566;2023-02-28T14:45:54;11.15;;;5.72;;
73670;SDS011;61968;48.178;11.566;2023-02-28T14:48:24;14.00;;;5.63;;
73670;SDS011;61968;48.178;11.566;2023-02-28T14:50:53;14.77;;;6.47;;
73670;SDS011;61968;48.178;11.566;2023-02-28T14:53:22;12.38;;;5.80;;
73670;SDS011;61968;48.178;11.566;2023-02-28T14:55:51;11.75;;;5.22;;
73670;SDS011;61968;48.178;11.566;2023-02-28T14:58:22;8.73;;;5.30;;
73670;SDS011;61968;48.178;11.566;2023-02-28T15:00:51;9.05;;;5.80;;
73670;SDS011;61968;48.178;11.566;2023-02-28T15:03:20;6.22;;;4.65;;
73670;SDS011;61968;48.178;11.566;2023-02-28T15:05:53;8.07;;;5.85;;
73670;SDS011;61968;48.178;11.566;2023-02-28T15:08:21;10.38;;;5.18;;
73670;SDS011;61968;48.178;11.566;2023-02-28T15:10:51;8.73;;;5.28;;
73670;SDS011;61968;48.178;11.566;2023-02-28T15:13:21;8.27;;;5.32;;
73670;SDS011;61968;48.178;11.566;2023-02-28T15:15:50;8.13;;;5.35;;
73670;SDS011;61968;48.178;11.566;2023-02-28T15:18:25;7.40;;;4.85;;
73670;SDS011;61968;48.178;11.566;2023-02-28T15:20:59;11.27;;;6.53;;
73670;SDS011;61968;48.178;11.566;2023-02-28T15:25:57;10.38;;;6.07;;
73670;SDS011;61968;48.178;11.566;2023-02-28T15:28:24;10.55;;;5.07;;
73670;SDS011;61968;48.178;11.566;2023-02-28T15:30:52;10.93;;;5.93;;
73670;SDS011;61968;48.178;11.566;2023-02-28T15:33:21;8.43;;;4.78;;
73670;SDS011;61968;48.178;11.566;2023-02-28T15:35:49;8.82;;;5.75;;
73670;SDS011;61968;48.178;11.566;2023-02-28T15:38:21;9.27;;;5.22;;
73670;SDS011;61968;48.178;11.566;2023-02-28T15:40:50;10.23;;;5.68;;
73670;SDS011;61968;48.178;11.566;2023-02-28T15:43:23;9.48;;;5.10;;
73670;SDS011;61968;48.178;11.566;2023-02-28T15:45:51;9.80;;;5.85;;
73670;SDS011;61968;48.178;11.566;2023-02-28T15:48:21;11.65;;;5.80;;
73670;SDS011;61968;48.178;11.566;2023-02-28T15:50:51;11.15;;;5.70;;
73670;SDS011;61968;48.178;11.566;2023-02-28T15:53:22;7.47;;;4.97;;
73670;SDS011;61968;48.178;11.566;2023-02-28T15:55:53;13.25;;;7.00;;